sensor_id;sensor_type;location;lat;lon;timestamp;temperature;humidity
19252;DHT22;9760;50.944;5.304;2022-10-31T00:00:29;14.30;99.90
19252;DHT22;9760;50.944;5.304;2022-10-31T00:02:54;14.30;99.90
19252;DHT22;9760;50.944;5.304;2022-10-31T00:05:21;14.40;99.90
19252;DHT22;9760;50.944;5.304;2022-10-31T00:07:46;14.40;99.90
19252;DHT22;9760;50.944;5.304;2022-10-31T00:10:12;14.40;99.90
19252;DHT22;9760;50.944;5.304;2022-10-31T00:12:37;14.50;99.90
19252;DHT22;9760;50.944;5.304;2022-10-31T00:15:03;14.50;99.90
19252;DHT22;9760;50.944;5.304;2022-10-31T00:17:29;14.50;99.90
19252;DHT22;9760;50.944;5.304;2022-10-31T00:19:54;14.50;99.90
19252;DHT22;9760;50.944;5.304;2022-10-31T00:22:20;14.50;99.90
19252;DHT22;9760;50.944;5.304;2022-10-31T00:24:45;14.40;99.90
19252;DHT22;9760;50.944;5.304;2022-10-31T00:27:11;14.30;99.90
19252;DHT22;9760;50.944;5.304;2022-10-31T00:29:37;14.30;99.90
19252;DHT22;9760;50.944;5.304;2022-10-31T00:32:02;14.30;99.90
19252;DHT22;9760;50.944;5.304;2022-10-31T00:34:28;14.40;99.90
19252;DHT22;9760;50.944;5.304;2022-10-31T00:36:53;14.30;99.90
19252;DHT22;9760;50.944;5.304;2022-10-31T00:39:19;14.30;99.90
19252;DHT22;9760;50.944;5.304;2022-10-31T00:41:45;14.20;99.90
19252;DHT22;9760;50.944;5.304;2022-10-31T00:44:10;14.20;99.90
19252;DHT22;9760;50.944;5.304;2022-10-31T00:46:36;14.20;99.90
19252;DHT22;9760;50.944;5.304;2022-10-31T00:49:01;14.30;99.90
19252;DHT22;9760;50.944;5.304;2022-10-31T00:51:27;14.40;99.90
19252;DHT22;9760;50.944;5.304;2022-10-31T00:53:52;14.50;99.90
19252;DHT22;9760;50.944;5.304;2022-10-31T00:56:18;14.50;99.90
19252;DHT22;9760;50.944;5.304;2022-10-31T00:58:44;14.50;99.90
19252;DHT22;9760;50.944;5.304;2022-10-31T01:01:09;14.50;99.90
19252;DHT22;9760;50.944;5.304;2022-10-31T01:03:35;14.50;99.90
19252;DHT22;9760;50.944;5.304;2022-10-31T01:06:04;14.50;99.90
19252;DHT22;9760;50.944;5.304;2022-10-31T01:08:30;14.50;99.90
19252;DHT22;9760;50.944;5.304;2022-10-31T01:13:30;14.30;99.90
19252;DHT22;9760;50.944;5.304;2022-10-31T01:15:57;14.30;99.90
19252;DHT22;9760;50.944;5.304;2022-10-31T01:18:22;14.30;99.90
19252;DHT22;9760;50.944;5.304;2022-10-31T01:21:00;14.30;99.90
19252;DHT22;9760;50.944;5.304;2022-10-31T01:23:27;14.20;99.90
19252;DHT22;9760;50.944;5.304;2022-10-31T01:26:09;14.20;99.90
19252;DHT22;9760;50.944;5.304;2022-10-31T01:28:37;14.20;99.90
19252;DHT22;9760;50.944;5.304;2022-10-31T01:31:07;14.20;99.90
19252;DHT22;9760;50.944;5.304;2022-10-31T01:33:34;14.10;99.90
19252;DHT22;9760;50.944;5.304;2022-10-31T01:35:59;14.10;99.90
19252;DHT22;9760;50.944;5.304;2022-10-31T01:38:26;14.00;99.90
19252;DHT22;9760;50.944;5.304;2022-10-31T01:40:52;14.00;99.90
19252;DHT22;9760;50.944;5.304;2022-10-31T01:43:18;14.00;99.90
19252;DHT22;9760;50.944;5.304;2022-10-31T01:45:49;13.90;99.90
19252;DHT22;9760;50.944;5.304;2022-10-31T01:48:17;13.90;99.90
19252;DHT22;9760;50.944;5.304;2022-10-31T01:50:47;13.80;99.90
19252;DHT22;9760;50.944;5.304;2022-10-31T01:53:15;13.80;99.90
19252;DHT22;9760;50.944;5.304;2022-10-31T01:55:44;13.80;99.90
19252;DHT22;9760;50.944;5.304;2022-10-31T01:58:23;13.70;99.90
19252;DHT22;9760;50.944;5.304;2022-10-31T02:00:53;13.60;99.90
19252;DHT22;9760;50.944;5.304;2022-10-31T02:03:22;13.50;99.90
19252;DHT22;9760;50.944;5.304;2022-10-31T02:05:49;13.40;99.90
19252;DHT22;9760;50.944;5.304;2022-10-31T02:08:31;13.40;99.90
19252;DHT22;9760;50.944;5.304;2022-10-31T02:11:00;13.40;99.90
19252;DHT22;9760;50.944;5.304;2022-10-31T02:13:26;13.50;99.90
19252;DHT22;9760;50.944;5.304;2022-10-31T02:15:55;13.50;99.90
19252;DHT22;9760;50.944;5.304;2022-10-31T02:18:23;13.50;99.90
19252;DHT22;9760;50.944;5.304;2022-10-31T02:24:28;13.60;99.90
19252;DHT22;9760;50.944;5.304;2022-10-31T02:32:19;13.50;99.90
19252;DHT22;9760;50.944;5.304;2022-10-31T02:34:55;13.20;99.90
19252;DHT22;9760;50.944;5.304;2022-10-31T02:37:42;13.00;99.90
19252;DHT22;9760;50.944;5.304;2022-10-31T02:40:23;13.00;99.90
19252;DHT22;9760;50.944;5.304;2022-10-31T02:47:53;13.00;99.90
19252;DHT22;9760;50.944;5.304;2022-10-31T02:50:23;13.10;99.90
19252;DHT22;9760;50.944;5.304;2022-10-31T02:52:51;13.10;99.90
19252;DHT22;9760;50.944;5.304;2022-10-31T02:57:57;13.20;99.90
19252;DHT22;9760;50.944;5.304;2022-10-31T03:00:25;13.20;99.90
19252;DHT22;9760;50.944;5.304;2022-10-31T03:03:19;13.20;99.90
19252;DHT22;9760;50.944;5.304;2022-10-31T03:05:55;13.20;99.90
19252;DHT22;9760;50.944;5.304;2022-10-31T03:08:47;13.10;99.90
19252;DHT22;9760;50.944;5.304;2022-10-31T03:11:18;12.90;99.90
19252;DHT22;9760;50.944;5.304;2022-10-31T03:14:00;13.00;99.90
19252;DHT22;9760;50.944;5.304;2022-10-31T03:19:05;12.90;99.90
19252;DHT22;9760;50.944;5.304;2022-10-31T03:24:25;12.90;99.90
19252;DHT22;9760;50.944;5.304;2022-10-31T03:26:54;12.90;99.90
19252;DHT22;9760;50.944;5.304;2022-10-31T03:29:24;12.90;99.90
19252;DHT22;9760;50.944;5.304;2022-10-31T03:31:57;13.00;99.90
19252;DHT22;9760;50.944;5.304;2022-10-31T03:34:25;12.90;99.90
19252;DHT22;9760;50.944;5.304;2022-10-31T03:36:55;12.90;99.90
19252;DHT22;9760;50.944;5.304;2022-10-31T03:39:22;13.00;99.90
19252;DHT22;9760;50.944;5.304;2022-10-31T03:41:59;13.00;99.90
19252;DHT22;9760;50.944;5.304;2022-10-31T03:44:27;13.00;99.90
19252;DHT22;9760;50.944;5.304;2022-10-31T03:46:54;13.00;99.90
19252;DHT22;9760;50.944;5.304;2022-10-31T03:49:20;12.90;99.90
19252;DHT22;9760;50.944;5.304;2022-10-31T03:52:41;12.90;99.90
19252;DHT22;9760;50.944;5.304;2022-10-31T03:54:43;12.80;99.90
19252;DHT22;9760;50.944;5.304;2022-10-31T03:57:32;12.80;99.90
19252;DHT22;9760;50.944;5.304;2022-10-31T04:02:34;12.80;99.90
19252;DHT22;9760;50.944;5.304;2022-10-31T04:05:00;12.80;99.90
19252;DHT22;9760;50.944;5.304;2022-10-31T04:07:29;12.80;99.90
19252;DHT22;9760;50.944;5.304;2022-10-31T04:09:56;12.80;99.90
19252;DHT22;9760;50.944;5.304;2022-10-31T04:12:24;12.70;99.90
19252;DHT22;9760;50.944;5.304;2022-10-31T04:14:50;12.70;99.90
19252;DHT22;9760;50.944;5.304;2022-10-31T04:17:19;12.80;99.90
19252;DHT22;9760;50.944;5.304;2022-10-31T04:19:46;12.70;99.90
19252;DHT22;9760;50.944;5.304;2022-10-31T04:22:12;12.60;99.90
19252;DHT22;9760;50.944;5.304;2022-10-31T04:24:39;12.50;99.90
19252;DHT22;9760;50.944;5.304;2022-10-31T04:27:05;12.30;99.90
19252;DHT22;9760;50.944;5.304;2022-10-31T04:29:31;12.30;99.90
19252;DHT22;9760;50.944;5.304;2022-10-31T04:31:57;12.30;99.90
19252;DHT22;9760;50.944;5.304;2022-10-31T04:34:22;12.30;99.90
19252;DHT22;9760;50.944;5.304;2022-10-31T04:36:48;12.30;99.90
19252;DHT22;9760;50.944;5.304;2022-10-31T04:39:14;12.30;99.90
19252;DHT22;9760;50.944;5.304;2022-10-31T04:41:39;12.20;99.90
19252;DHT22;9760;50.944;5.304;2022-10-31T04:44:05;12.30;99.90
19252;DHT22;9760;50.944;5.304;2022-10-31T04:46:30;12.30;99.90
19252;DHT22;9760;50.944;5.304;2022-10-31T04:48:56;12.30;99.90
19252;DHT22;9760;50.944;5.304;2022-10-31T04:51:22;12.40;99.90
19252;DHT22;9760;50.944;5.304;2022-10-31T04:53:47;12.20;99.90
19252;DHT22;9760;50.944;5.304;2022-10-31T04:56:13;12.50;99.90
19252;DHT22;9760;50.944;5.304;2022-10-31T04:58:39;12.40;99.90
19252;DHT22;9760;50.944;5.304;2022-10-31T05:01:04;12.50;99.90
19252;DHT22;9760;50.944;5.304;2022-10-31T05:03:30;12.40;99.90
19252;DHT22;9760;50.944;5.304;2022-10-31T05:05:56;12.50;99.90
19252;DHT22;9760;50.944;5.304;2022-10-31T05:08:21;12.40;99.90
19252;DHT22;9760;50.944;5.304;2022-10-31T05:10:47;12.40;99.90
19252;DHT22;9760;50.944;5.304;2022-10-31T05:13:12;12.30;99.90
19252;DHT22;9760;50.944;5.304;2022-10-31T05:15:40;12.30;99.90
19252;DHT22;9760;50.944;5.304;2022-10-31T05:18:05;12.30;99.90
19252;DHT22;9760;50.944;5.304;2022-10-31T05:20:31;12.40;99.90
19252;DHT22;9760;50.944;5.304;2022-10-31T05:22:58;12.30;99.90
19252;DHT22;9760;50.944;5.304;2022-10-31T05:25:26;12.30;99.90
19252;DHT22;9760;50.944;5.304;2022-10-31T05:27:53;12.30;99.90
19252;DHT22;9760;50.944;5.304;2022-10-31T05:30:25;12.30;99.90
19252;DHT22;9760;50.944;5.304;2022-10-31T05:32:51;12.30;99.90
19252;DHT22;9760;50.944;5.304;2022-10-31T05:35:35;12.30;99.90
19252;DHT22;9760;50.944;5.304;2022-10-31T05:38:00;12.30;99.90
19252;DHT22;9760;50.944;5.304;2022-10-31T05:40:27;12.40;99.90
19252;DHT22;9760;50.944;5.304;2022-10-31T05:42:54;12.50;99.90
19252;DHT22;9760;50.944;5.304;2022-10-31T05:45:21;12.50;99.90
19252;DHT22;9760;50.944;5.304;2022-10-31T05:48:05;12.60;99.90
19252;DHT22;9760;50.944;5.304;2022-10-31T05:50:31;12.60;99.90
19252;DHT22;9760;50.944;5.304;2022-10-31T05:52:59;12.50;99.90
19252;DHT22;9760;50.944;5.304;2022-10-31T05:55:25;12.50;99.90
19252;DHT22;9760;50.944;5.304;2022-10-31T05:57:52;12.50;99.90
19252;DHT22;9760;50.944;5.304;2022-10-31T06:00:18;12.40;99.90
19252;DHT22;9760;50.944;5.304;2022-10-31T06:02:44;12.40;99.90
19252;DHT22;9760;50.944;5.304;2022-10-31T06:05:10;12.50;99.90
19252;DHT22;9760;50.944;5.304;2022-10-31T06:07:36;12.40;99.90
19252;DHT22;9760;50.944;5.304;2022-10-31T06:10:04;12.40;99.90
19252;DHT22;9760;50.944;5.304;2022-10-31T06:12:30;12.40;99.90
19252;DHT22;9760;50.944;5.304;2022-10-31T06:14:56;12.40;99.90
19252;DHT22;9760;50.944;5.304;2022-10-31T06:17:22;12.40;99.90
19252;DHT22;9760;50.944;5.304;2022-10-31T06:19:48;12.40;99.90
19252;DHT22;9760;50.944;5.304;2022-10-31T06:22:13;12.50;99.90
19252;DHT22;9760;50.944;5.304;2022-10-31T06:24:39;12.40;99.90
19252;DHT22;9760;50.944;5.304;2022-10-31T06:27:05;12.40;99.90
19252;DHT22;9760;50.944;5.304;2022-10-31T06:29:31;12.40;99.90
19252;DHT22;9760;50.944;5.304;2022-10-31T06:31:57;12.50;99.90
19252;DHT22;9760;50.944;5.304;2022-10-31T06:34:22;12.50;99.90
19252;DHT22;9760;50.944;5.304;2022-10-31T06:36:48;12.50;99.90
19252;DHT22;9760;50.944;5.304;2022-10-31T06:39:14;12.40;99.90
19252;DHT22;9760;50.944;5.304;2022-10-31T06:41:40;12.40;99.90
19252;DHT22;9760;50.944;5.304;2022-10-31T06:44:07;12.30;99.90
19252;DHT22;9760;50.944;5.304;2022-10-31T06:46:33;12.20;99.90
19252;DHT22;9760;50.944;5.304;2022-10-31T06:48:58;12.20;99.90
19252;DHT22;9760;50.944;5.304;2022-10-31T06:51:24;12.00;99.90
19252;DHT22;9760;50.944;5.304;2022-10-31T06:53:50;12.00;99.90
19252;DHT22;9760;50.944;5.304;2022-10-31T06:56:15;12.00;99.90
19252;DHT22;9760;50.944;5.304;2022-10-31T06:58:41;12.10;99.90
19252;DHT22;9760;50.944;5.304;2022-10-31T07:01:07;12.10;99.90
19252;DHT22;9760;50.944;5.304;2022-10-31T07:03:32;12.20;99.90
19252;DHT22;9760;50.944;5.304;2022-10-31T07:05:58;12.10;99.90
19252;DHT22;9760;50.944;5.304;2022-10-31T07:08:24;12.10;99.90
19252;DHT22;9760;50.944;5.304;2022-10-31T07:10:55;12.20;99.90
19252;DHT22;9760;50.944;5.304;2022-10-31T07:13:21;12.20;99.90
19252;DHT22;9760;50.944;5.304;2022-10-31T07:15:52;12.20;99.90
19252;DHT22;9760;50.944;5.304;2022-10-31T07:18:18;12.20;99.90
19252;DHT22;9760;50.944;5.304;2022-10-31T07:20:44;12.20;99.90
19252;DHT22;9760;50.944;5.304;2022-10-31T07:23:10;12.20;99.90
19252;DHT22;9760;50.944;5.304;2022-10-31T07:25:40;12.30;99.90
19252;DHT22;9760;50.944;5.304;2022-10-31T07:28:06;12.40;99.90
19252;DHT22;9760;50.944;5.304;2022-10-31T07:30:32;12.40;99.90
19252;DHT22;9760;50.944;5.304;2022-10-31T07:32:58;12.40;99.90
19252;DHT22;9760;50.944;5.304;2022-10-31T07:35:26;12.50;99.90
19252;DHT22;9760;50.944;5.304;2022-10-31T07:37:52;12.60;99.90
19252;DHT22;9760;50.944;5.304;2022-10-31T07:40:18;12.60;99.90
19252;DHT22;9760;50.944;5.304;2022-10-31T07:42:49;12.70;99.90
19252;DHT22;9760;50.944;5.304;2022-10-31T07:45:19;12.70;99.90
19252;DHT22;9760;50.944;5.304;2022-10-31T07:47:50;12.80;99.90
19252;DHT22;9760;50.944;5.304;2022-10-31T07:50:19;12.80;99.90
19252;DHT22;9760;50.944;5.304;2022-10-31T07:52:45;12.90;99.90
19252;DHT22;9760;50.944;5.304;2022-10-31T07:55:11;12.80;99.90
19252;DHT22;9760;50.944;5.304;2022-10-31T07:57:37;12.80;99.90
19252;DHT22;9760;50.944;5.304;2022-10-31T08:00:07;12.90;99.90
19252;DHT22;9760;50.944;5.304;2022-10-31T08:02:33;13.00;99.90
19252;DHT22;9760;50.944;5.304;2022-10-31T08:05:00;13.00;99.90
19252;DHT22;9760;50.944;5.304;2022-10-31T08:07:28;13.00;99.90
19252;DHT22;9760;50.944;5.304;2022-10-31T08:09:54;13.10;99.90
19252;DHT22;9760;50.944;5.304;2022-10-31T08:12:19;13.20;99.90
19252;DHT22;9760;50.944;5.304;2022-10-31T08:14:45;13.30;99.90
19252;DHT22;9760;50.944;5.304;2022-10-31T08:17:11;13.40;99.90
19252;DHT22;9760;50.944;5.304;2022-10-31T08:19:37;13.60;99.90
19252;DHT22;9760;50.944;5.304;2022-10-31T08:22:02;13.80;99.90
19252;DHT22;9760;50.944;5.304;2022-10-31T08:24:28;13.80;99.90
19252;DHT22;9760;50.944;5.304;2022-10-31T08:26:54;13.80;99.90
19252;DHT22;9760;50.944;5.304;2022-10-31T08:29:19;13.90;99.90
19252;DHT22;9760;50.944;5.304;2022-10-31T08:31:45;13.80;99.90
19252;DHT22;9760;50.944;5.304;2022-10-31T08:34:10;13.90;99.90
19252;DHT22;9760;50.944;5.304;2022-10-31T08:36:36;14.10;99.90
19252;DHT22;9760;50.944;5.304;2022-10-31T08:39:02;14.30;99.90
19252;DHT22;9760;50.944;5.304;2022-10-31T08:41:28;14.40;99.90
19252;DHT22;9760;50.944;5.304;2022-10-31T08:43:53;14.50;99.90
19252;DHT22;9760;50.944;5.304;2022-10-31T08:46:19;14.60;99.90
19252;DHT22;9760;50.944;5.304;2022-10-31T08:48:48;14.70;99.90
19252;DHT22;9760;50.944;5.304;2022-10-31T08:51:14;14.80;99.90
19252;DHT22;9760;50.944;5.304;2022-10-31T08:53:39;14.90;99.90
19252;DHT22;9760;50.944;5.304;2022-10-31T08:56:05;15.00;99.90
19252;DHT22;9760;50.944;5.304;2022-10-31T08:58:31;15.00;99.90
19252;DHT22;9760;50.944;5.304;2022-10-31T09:00:59;15.10;99.90
19252;DHT22;9760;50.944;5.304;2022-10-31T09:03:30;15.20;99.90
19252;DHT22;9760;50.944;5.304;2022-10-31T09:05:58;15.10;99.90
19252;DHT22;9760;50.944;5.304;2022-10-31T09:08:25;15.10;99.90
19252;DHT22;9760;50.944;5.304;2022-10-31T09:10:51;15.20;99.90
19252;DHT22;9760;50.944;5.304;2022-10-31T09:13:19;15.20;99.90
19252;DHT22;9760;50.944;5.304;2022-10-31T09:15:47;15.30;99.90
19252;DHT22;9760;50.944;5.304;2022-10-31T09:18:14;15.60;99.90
19252;DHT22;9760;50.944;5.304;2022-10-31T09:20:42;15.60;99.90
19252;DHT22;9760;50.944;5.304;2022-10-31T09:23:13;15.60;99.90
19252;DHT22;9760;50.944;5.304;2022-10-31T09:25:40;15.50;99.90
19252;DHT22;9760;50.944;5.304;2022-10-31T09:28:08;15.40;99.90
19252;DHT22;9760;50.944;5.304;2022-10-31T09:30:35;15.30;99.90
19252;DHT22;9760;50.944;5.304;2022-10-31T09:33:05;15.30;99.90
19252;DHT22;9760;50.944;5.304;2022-10-31T09:35:31;15.50;99.90
19252;DHT22;9760;50.944;5.304;2022-10-31T09:37:59;15.40;99.90
19252;DHT22;9760;50.944;5.304;2022-10-31T09:43:13;15.30;99.90
19252;DHT22;9760;50.944;5.304;2022-10-31T09:48:37;15.30;99.90
19252;DHT22;9760;50.944;5.304;2022-10-31T09:51:08;15.40;99.90
19252;DHT22;9760;50.944;5.304;2022-10-31T09:53:51;15.50;99.90
19252;DHT22;9760;50.944;5.304;2022-10-31T09:56:21;15.70;99.90
19252;DHT22;9760;50.944;5.304;2022-10-31T09:59:00;15.80;99.90
19252;DHT22;9760;50.944;5.304;2022-10-31T10:01:40;15.80;99.90
19252;DHT22;9760;50.944;5.304;2022-10-31T10:07:03;16.00;99.90
19252;DHT22;9760;50.944;5.304;2022-10-31T10:09:29;16.20;99.90
19252;DHT22;9760;50.944;5.304;2022-10-31T10:12:01;16.30;99.90
19252;DHT22;9760;50.944;5.304;2022-10-31T10:14:50;16.40;99.90
19252;DHT22;9760;50.944;5.304;2022-10-31T10:25:45;16.60;99.90
19252;DHT22;9760;50.944;5.304;2022-10-31T10:28:34;16.60;99.90
19252;DHT22;9760;50.944;5.304;2022-10-31T10:31:15;16.60;99.90
19252;DHT22;9760;50.944;5.304;2022-10-31T10:34:05;16.70;99.90
19252;DHT22;9760;50.944;5.304;2022-10-31T10:39:22;16.70;99.90
19252;DHT22;9760;50.944;5.304;2022-10-31T10:41:49;16.80;99.90
19252;DHT22;9760;50.944;5.304;2022-10-31T10:44:37;16.80;99.90
19252;DHT22;9760;50.944;5.304;2022-10-31T10:47:25;16.90;99.90
19252;DHT22;9760;50.944;5.304;2022-10-31T10:50:14;16.90;99.90
19252;DHT22;9760;50.944;5.304;2022-10-31T10:52:44;17.00;99.90
19252;DHT22;9760;50.944;5.304;2022-10-31T10:55:29;17.20;99.90
19252;DHT22;9760;50.944;5.304;2022-10-31T10:58:11;17.20;99.90
19252;DHT22;9760;50.944;5.304;2022-10-31T11:00:44;17.30;99.90
19252;DHT22;9760;50.944;5.304;2022-10-31T11:03:13;17.40;99.90
19252;DHT22;9760;50.944;5.304;2022-10-31T11:05:41;17.50;99.90
19252;DHT22;9760;50.944;5.304;2022-10-31T11:08:08;17.40;99.90
19252;DHT22;9760;50.944;5.304;2022-10-31T11:10:35;17.30;99.90
19252;DHT22;9760;50.944;5.304;2022-10-31T11:15:38;17.50;99.90
19252;DHT22;9760;50.944;5.304;2022-10-31T11:18:05;17.40;99.90
19252;DHT22;9760;50.944;5.304;2022-10-31T11:20:33;17.20;99.90
19252;DHT22;9760;50.944;5.304;2022-10-31T11:23:14;17.30;99.90
19252;DHT22;9760;50.944;5.304;2022-10-31T11:25:58;17.50;99.90
19252;DHT22;9760;50.944;5.304;2022-10-31T11:28:26;17.50;99.90
19252;DHT22;9760;50.944;5.304;2022-10-31T11:30:59;17.50;99.90
19252;DHT22;9760;50.944;5.304;2022-10-31T11:33:58;17.50;99.90
19252;DHT22;9760;50.944;5.304;2022-10-31T11:36:29;17.60;99.90
19252;DHT22;9760;50.944;5.304;2022-10-31T11:38:55;17.70;99.90
19252;DHT22;9760;50.944;5.304;2022-10-31T11:44:10;17.70;99.90
19252;DHT22;9760;50.944;5.304;2022-10-31T11:46:39;17.90;99.90
19252;DHT22;9760;50.944;5.304;2022-10-31T11:49:13;17.80;99.90
19252;DHT22;9760;50.944;5.304;2022-10-31T11:51:40;17.80;99.90
19252;DHT22;9760;50.944;5.304;2022-10-31T11:54:22;17.90;99.90
19252;DHT22;9760;50.944;5.304;2022-10-31T11:56:48;18.00;99.90
19252;DHT22;9760;50.944;5.304;2022-10-31T11:59:32;17.90;99.90
19252;DHT22;9760;50.944;5.304;2022-10-31T12:02:00;17.90;99.90
19252;DHT22;9760;50.944;5.304;2022-10-31T12:04:40;17.80;99.90
19252;DHT22;9760;50.944;5.304;2022-10-31T12:07:07;17.70;99.90
19252;DHT22;9760;50.944;5.304;2022-10-31T12:09:35;17.70;99.90
19252;DHT22;9760;50.944;5.304;2022-10-31T12:12:11;17.60;99.90
19252;DHT22;9760;50.944;5.304;2022-10-31T12:17:18;17.70;99.90
19252;DHT22;9760;50.944;5.304;2022-10-31T12:28:19;17.70;99.90
19252;DHT22;9760;50.944;5.304;2022-10-31T12:33:54;17.70;99.90
19252;DHT22;9760;50.944;5.304;2022-10-31T12:42:10;17.80;99.90
19252;DHT22;9760;50.944;5.304;2022-10-31T12:47:40;18.00;99.90
19252;DHT22;9760;50.944;5.304;2022-10-31T12:58:28;18.20;99.90
19252;DHT22;9760;50.944;5.304;2022-10-31T13:03:57;18.40;99.90
19252;DHT22;9760;50.944;5.304;2022-10-31T13:06:29;18.40;99.90
19252;DHT22;9760;50.944;5.304;2022-10-31T13:09:00;18.50;99.90
19252;DHT22;9760;50.944;5.304;2022-10-31T13:14:44;18.50;99.90
19252;DHT22;9760;50.944;5.304;2022-10-31T13:19:49;18.50;99.90
19252;DHT22;9760;50.944;5.304;2022-10-31T13:22:21;18.60;99.90
19252;DHT22;9760;50.944;5.304;2022-10-31T13:30:21;19.00;99.90
19252;DHT22;9760;50.944;5.304;2022-10-31T13:32:55;19.10;99.90
19252;DHT22;9760;50.944;5.304;2022-10-31T13:36:06;19.00;99.90
19252;DHT22;9760;50.944;5.304;2022-10-31T13:38:58;19.10;99.90
19252;DHT22;9760;50.944;5.304;2022-10-31T13:44:05;19.10;99.90
19252;DHT22;9760;50.944;5.304;2022-10-31T13:46:34;19.00;99.90
19252;DHT22;9760;50.944;5.304;2022-10-31T13:49:00;18.90;99.90
19252;DHT22;9760;50.944;5.304;2022-10-31T13:51:31;19.00;99.90
19252;DHT22;9760;50.944;5.304;2022-10-31T13:54:00;19.10;99.90
19252;DHT22;9760;50.944;5.304;2022-10-31T13:56:28;19.10;99.90
19252;DHT22;9760;50.944;5.304;2022-10-31T14:01:46;19.10;99.90
19252;DHT22;9760;50.944;5.304;2022-10-31T14:04:18;19.10;99.90
19252;DHT22;9760;50.944;5.304;2022-10-31T14:06:57;19.00;99.90
19252;DHT22;9760;50.944;5.304;2022-10-31T14:09:31;19.10;99.90
19252;DHT22;9760;50.944;5.304;2022-10-31T14:14:49;19.00;99.90
19252;DHT22;9760;50.944;5.304;2022-10-31T14:17:20;18.90;99.90
19252;DHT22;9760;50.944;5.304;2022-10-31T14:22:37;19.00;99.90
19252;DHT22;9760;50.944;5.304;2022-10-31T14:25:31;18.90;99.90
19252;DHT22;9760;50.944;5.304;2022-10-31T14:27:58;19.00;99.90
19252;DHT22;9760;50.944;5.304;2022-10-31T14:30:26;19.00;99.90
19252;DHT22;9760;50.944;5.304;2022-10-31T14:33:09;19.10;99.90
19252;DHT22;9760;50.944;5.304;2022-10-31T14:36:11;19.20;99.90
19252;DHT22;9760;50.944;5.304;2022-10-31T14:39:13;19.30;99.90
19252;DHT22;9760;50.944;5.304;2022-10-31T14:41:57;19.30;99.90
19252;DHT22;9760;50.944;5.304;2022-10-31T14:52:51;18.90;99.90
19252;DHT22;9760;50.944;5.304;2022-10-31T14:55:18;18.90;99.90
19252;DHT22;9760;50.944;5.304;2022-10-31T14:57:58;18.90;99.90
19252;DHT22;9760;50.944;5.304;2022-10-31T15:00:24;18.90;99.90
19252;DHT22;9760;50.944;5.304;2022-10-31T15:03:14;18.90;99.90
19252;DHT22;9760;50.944;5.304;2022-10-31T15:05:52;18.90;99.90
19252;DHT22;9760;50.944;5.304;2022-10-31T15:10:57;18.90;99.90
19252;DHT22;9760;50.944;5.304;2022-10-31T15:13:22;18.80;99.90
19252;DHT22;9760;50.944;5.304;2022-10-31T15:15:51;18.80;99.90
19252;DHT22;9760;50.944;5.304;2022-10-31T15:18:24;18.70;99.90
19252;DHT22;9760;50.944;5.304;2022-10-31T15:20:52;18.70;99.90
19252;DHT22;9760;50.944;5.304;2022-10-31T15:23:26;18.70;99.90
19252;DHT22;9760;50.944;5.304;2022-10-31T15:26:00;18.70;99.90
19252;DHT22;9760;50.944;5.304;2022-10-31T15:28:26;18.60;99.90
19252;DHT22;9760;50.944;5.304;2022-10-31T15:30:59;18.60;99.90
19252;DHT22;9760;50.944;5.304;2022-10-31T15:33:28;18.50;99.90
19252;DHT22;9760;50.944;5.304;2022-10-31T15:36:00;18.50;99.90
19252;DHT22;9760;50.944;5.304;2022-10-31T15:38:27;18.50;99.90
19252;DHT22;9760;50.944;5.304;2022-10-31T15:40:58;18.50;99.90
19252;DHT22;9760;50.944;5.304;2022-10-31T15:43:32;18.50;99.90
19252;DHT22;9760;50.944;5.304;2022-10-31T15:45:59;18.50;99.90
19252;DHT22;9760;50.944;5.304;2022-10-31T15:48:25;18.40;99.90
19252;DHT22;9760;50.944;5.304;2022-10-31T15:50:56;18.30;99.90
19252;DHT22;9760;50.944;5.304;2022-10-31T15:56:02;18.30;99.90
19252;DHT22;9760;50.944;5.304;2022-10-31T15:58:28;18.20;99.90
19252;DHT22;9760;50.944;5.304;2022-10-31T16:01:06;18.20;99.90
19252;DHT22;9760;50.944;5.304;2022-10-31T16:03:44;18.20;99.90
19252;DHT22;9760;50.944;5.304;2022-10-31T16:06:21;18.20;99.90
19252;DHT22;9760;50.944;5.304;2022-10-31T16:08:49;18.30;99.90
19252;DHT22;9760;50.944;5.304;2022-10-31T16:11:27;18.40;99.90
19252;DHT22;9760;50.944;5.304;2022-10-31T16:14:06;18.40;99.90
19252;DHT22;9760;50.944;5.304;2022-10-31T16:16:34;18.30;99.90
19252;DHT22;9760;50.944;5.304;2022-10-31T16:19:01;18.30;99.90
19252;DHT22;9760;50.944;5.304;2022-10-31T16:21:32;18.20;99.90
19252;DHT22;9760;50.944;5.304;2022-10-31T16:24:13;18.20;99.90
19252;DHT22;9760;50.944;5.304;2022-10-31T16:26:41;18.10;99.90
19252;DHT22;9760;50.944;5.304;2022-10-31T16:29:27;18.00;99.90
19252;DHT22;9760;50.944;5.304;2022-10-31T16:31:53;17.90;99.90
19252;DHT22;9760;50.944;5.304;2022-10-31T16:34:23;17.90;99.90
19252;DHT22;9760;50.944;5.304;2022-10-31T16:36:49;17.90;99.90
19252;DHT22;9760;50.944;5.304;2022-10-31T16:39:15;17.90;99.90
19252;DHT22;9760;50.944;5.304;2022-10-31T16:41:44;17.80;99.90
19252;DHT22;9760;50.944;5.304;2022-10-31T16:44:28;17.90;99.90
19252;DHT22;9760;50.944;5.304;2022-10-31T16:47:09;17.90;99.90
19252;DHT22;9760;50.944;5.304;2022-10-31T16:49:37;17.80;99.90
19252;DHT22;9760;50.944;5.304;2022-10-31T16:52:02;17.70;99.90
19252;DHT22;9760;50.944;5.304;2022-10-31T16:54:29;17.70;99.90
19252;DHT22;9760;50.944;5.304;2022-10-31T16:56:55;17.70;99.90
19252;DHT22;9760;50.944;5.304;2022-10-31T16:59:20;17.70;99.90
19252;DHT22;9760;50.944;5.304;2022-10-31T17:01:48;17.70;99.90
19252;DHT22;9760;50.944;5.304;2022-10-31T17:04:14;17.70;99.90
19252;DHT22;9760;50.944;5.304;2022-10-31T17:06:40;17.70;99.90
19252;DHT22;9760;50.944;5.304;2022-10-31T17:09:06;17.70;99.90
19252;DHT22;9760;50.944;5.304;2022-10-31T17:11:32;17.70;99.90
19252;DHT22;9760;50.944;5.304;2022-10-31T17:13:58;17.60;99.90
19252;DHT22;9760;50.944;5.304;2022-10-31T17:16:24;17.50;99.90
19252;DHT22;9760;50.944;5.304;2022-10-31T17:18:49;17.50;99.90
19252;DHT22;9760;50.944;5.304;2022-10-31T17:21:18;17.40;99.90
19252;DHT22;9760;50.944;5.304;2022-10-31T17:23:45;17.40;99.90
19252;DHT22;9760;50.944;5.304;2022-10-31T17:26:11;17.30;99.90
19252;DHT22;9760;50.944;5.304;2022-10-31T17:28:36;17.30;99.90
19252;DHT22;9760;50.944;5.304;2022-10-31T17:31:02;17.30;99.90
19252;DHT22;9760;50.944;5.304;2022-10-31T17:33:28;17.20;99.90
19252;DHT22;9760;50.944;5.304;2022-10-31T17:35:53;17.10;99.90
19252;DHT22;9760;50.944;5.304;2022-10-31T17:38:19;17.10;99.90
19252;DHT22;9760;50.944;5.304;2022-10-31T17:40:44;17.10;99.90
19252;DHT22;9760;50.944;5.304;2022-10-31T17:43:10;17.10;99.90
19252;DHT22;9760;50.944;5.304;2022-10-31T17:45:38;17.00;99.90
19252;DHT22;9760;50.944;5.304;2022-10-31T17:48:04;17.00;99.90
19252;DHT22;9760;50.944;5.304;2022-10-31T17:50:30;17.10;99.90
19252;DHT22;9760;50.944;5.304;2022-10-31T17:52:57;17.00;99.90
19252;DHT22;9760;50.944;5.304;2022-10-31T17:55:23;17.00;99.90
19252;DHT22;9760;50.944;5.304;2022-10-31T17:57:49;17.00;99.90
19252;DHT22;9760;50.944;5.304;2022-10-31T18:00:17;17.00;99.90
19252;DHT22;9760;50.944;5.304;2022-10-31T18:02:45;17.00;99.90